createdAt,value
2018-05-23T00:01:03.540Z,16.80
2018-05-23T00:03:30.995Z,16.80
2018-05-23T00:05:58.461Z,16.80
2018-05-23T00:08:25.908Z,16.80
2018-05-23T00:10:54.136Z,16.90
2018-05-23T00:13:21.588Z,16.80
2018-05-23T00:15:49.085Z,16.90
2018-05-23T00:18:16.557Z,16.80
2018-05-23T00:20:44.028Z,16.80
2018-05-23T00:23:11.479Z,16.70
2018-05-23T00:25:38.949Z,16.80
2018-05-23T00:28:06.444Z,16.80
2018-05-23T00:30:33.892Z,16.80
2018-05-23T00:33:01.376Z,16.80
2018-05-23T00:35:28.844Z,16.80
2018-05-23T00:37:56.317Z,16.80
2018-05-23T00:40:23.765Z,16.80
2018-05-23T00:42:51.248Z,16.80
2018-05-23T00:45:18.696Z,16.80
2018-05-23T00:47:46.209Z,16.80
2018-05-23T00:50:13.680Z,16.80
2018-05-23T00:52:41.137Z,16.80
2018-05-23T00:55:20.586Z,16.80
2018-05-23T00:57:48.056Z,16.80
2018-05-23T01:00:15.533Z,16.70
2018-05-23T01:02:42.981Z,16.70
2018-05-23T01:05:10.433Z,16.80
2018-05-23T01:07:37.893Z,16.80
2018-05-23T01:10:05.413Z,16.70
2018-05-23T01:12:32.876Z,16.80
2018-05-23T01:15:00.328Z,16.70
2018-05-23T01:17:27.800Z,16.70
2018-05-23T01:19:55.349Z,16.70
2018-05-23T01:22:22.841Z,16.60
2018-05-23T01:24:50.328Z,16.60
2018-05-23T01:27:17.862Z,16.60
2018-05-23T01:29:46.084Z,16.70
2018-05-23T01:32:13.557Z,16.60
2018-05-23T01:34:41.028Z,16.60
2018-05-23T01:37:08.484Z,16.70
2018-05-23T01:39:35.949Z,16.60
2018-05-23T01:42:03.400Z,16.60
2018-05-23T01:44:30.849Z,16.50
2018-05-23T01:46:59.089Z,16.40
2018-05-23T01:49:26.535Z,16.40
2018-05-23T01:51:54.032Z,16.40
2018-05-23T01:54:21.500Z,16.40
2018-05-23T01:56:48.949Z,16.40
2018-05-23T01:59:16.441Z,16.40
2018-05-23T02:01:43.897Z,16.40
2018-05-23T02:04:11.356Z,16.30
2018-05-23T02:06:38.808Z,16.40
2018-05-23T02:09:06.277Z,16.40
2018-05-23T02:11:33.728Z,16.30
2018-05-23T02:14:01.977Z,16.30
2018-05-23T02:16:29.448Z,16.30
2018-05-23T02:18:56.901Z,16.20
2018-05-23T02:21:24.374Z,16.20
2018-05-23T02:23:51.860Z,16.20
2018-05-23T02:26:19.333Z,16.20
2018-05-23T02:28:46.800Z,16.20
2018-05-23T02:31:14.253Z,16.10
2018-05-23T02:33:41.847Z,16.10
2018-05-23T02:36:09.293Z,16.20
2018-05-23T02:38:36.747Z,16.10
2018-05-23T02:41:04.213Z,16.10
2018-05-23T02:43:31.665Z,16.10
2018-05-23T02:45:59.908Z,16.10
2018-05-23T02:48:27.376Z,16.10
2018-05-23T02:50:54.845Z,16.10
2018-05-23T02:53:22.304Z,16.00
2018-05-23T02:55:49.753Z,16.10
2018-05-23T02:58:17.217Z,16.10
2018-05-23T03:00:44.663Z,16.10
2018-05-23T03:03:12.977Z,16.00
2018-05-23T03:05:40.419Z,16.00
2018-05-23T03:08:08.633Z,16.00
2018-05-23T03:10:36.136Z,16.00
2018-05-23T03:13:03.683Z,16.00
2018-05-23T03:15:31.183Z,16.00
2018-05-23T03:17:58.651Z,16.00
2018-05-23T03:20:26.104Z,16.00
2018-05-23T03:22:53.589Z,16.00
2018-05-23T03:25:21.041Z,16.00
2018-05-23T03:27:48.504Z,16.00
2018-05-23T03:30:15.956Z,16.00
2018-05-23T03:32:43.408Z,16.00
2018-05-23T03:35:11.648Z,16.10
2018-05-23T03:37:39.097Z,16.00
2018-05-23T03:40:06.557Z,16.10
2018-05-23T03:42:34.008Z,16.00
2018-05-23T03:45:02.253Z,16.00
2018-05-23T03:47:29.701Z,16.00
2018-05-23T03:49:57.197Z,16.00
2018-05-23T03:52:24.769Z,16.00
2018-05-23T03:54:52.219Z,16.00
2018-05-23T03:57:19.708Z,15.90
2018-05-23T03:59:59.184Z,15.90
2018-05-23T04:02:39.265Z,16.00
2018-05-23T04:08:13.513Z,15.90
2018-05-23T04:10:40.962Z,16.00
2018-05-23T04:13:08.422Z,16.00
2018-05-23T04:15:35.884Z,16.00
2018-05-23T04:18:03.372Z,16.00
2018-05-23T04:20:30.832Z,16.00
2018-05-23T04:22:58.296Z,16.00
2018-05-23T04:25:25.787Z,16.00
2018-05-23T04:27:53.249Z,16.00
2018-05-23T04:30:20.824Z,16.10
2018-05-23T04:32:48.284Z,16.20
2018-05-23T04:35:15.785Z,16.30
2018-05-23T04:37:43.244Z,16.30
2018-05-23T04:40:10.695Z,16.40
2018-05-23T04:42:38.156Z,16.40
2018-05-23T04:45:05.703Z,16.40
2018-05-23T04:47:33.929Z,16.30
2018-05-23T04:50:01.379Z,16.30
2018-05-23T04:52:28.843Z,16.30
2018-05-23T04:54:56.288Z,16.30
2018-05-23T04:57:24.516Z,16.40
2018-05-23T04:59:51.969Z,16.30
2018-05-23T05:02:19.427Z,16.40
2018-05-23T05:04:46.885Z,16.40
2018-05-23T05:07:15.141Z,16.40
2018-05-23T05:09:42.616Z,16.40
2018-05-23T05:12:10.084Z,16.40
2018-05-23T05:14:37.576Z,16.40
2018-05-23T05:17:05.812Z,16.50
2018-05-23T05:19:33.270Z,16.50
2018-05-23T05:22:00.736Z,16.50
2018-05-23T05:24:28.199Z,16.50
2018-05-23T05:26:55.657Z,16.50
2018-05-23T08:15:20.361Z,21.60
2018-05-23T08:17:47.924Z,22.00
2018-05-23T08:22:47.272Z,22.30
2018-05-23T08:25:14.736Z,22.30
2018-05-23T08:27:42.204Z,22.50
2018-05-23T08:30:09.660Z,22.80
2018-05-23T08:32:37.149Z,23.20
2018-05-23T08:35:04.769Z,23.60
2018-05-23T08:37:32.988Z,24.10
2018-05-23T08:40:00.545Z,24.10
2018-05-23T08:42:27.995Z,24.40
2018-05-23T08:44:56.209Z,25.30
2018-05-23T08:47:23.668Z,25.20
2018-05-23T08:49:51.179Z,25.50
2018-05-23T08:52:18.644Z,25.70
2018-05-23T08:54:46.092Z,25.80
2018-05-23T08:57:13.557Z,26.10
2018-05-23T08:59:41.118Z,26.10
2018-05-23T09:02:08.561Z,26.00
2018-05-23T09:04:36.814Z,26.20
2018-05-23T09:07:04.284Z,26.20
2018-05-23T09:09:31.748Z,26.30
2018-05-23T09:11:59.268Z,26.40
2018-05-23T19:02:51.048Z,22.50
2018-05-23T19:05:18.627Z,22.50
2018-05-23T19:07:46.064Z,22.50
2018-05-23T19:10:14.321Z,22.40
2018-05-23T19:12:41.874Z,22.30
2018-05-23T19:15:09.325Z,22.30
2018-05-23T19:17:36.823Z,22.30
2018-05-23T19:20:04.315Z,22.20
2018-05-23T19:22:31.860Z,22.20
2018-05-23T19:24:59.340Z,22.10
2018-05-23T19:27:26.816Z,22.10
2018-05-23T19:29:54.267Z,22.00
2018-05-23T19:32:21.738Z,22.00
2018-05-23T19:34:49.192Z,21.90
2018-05-23T19:37:16.665Z,21.80
2018-05-23T19:39:44.249Z,21.80
2018-05-23T19:42:11.727Z,21.70
2018-05-23T19:44:39.324Z,21.70
2018-05-23T19:47:06.868Z,21.70
2018-05-23T19:49:34.347Z,21.60
2018-05-23T19:52:01.805Z,21.50
2018-05-23T19:54:29.260Z,21.50
2018-05-23T19:56:56.748Z,21.40
2018-05-23T19:59:24.221Z,21.30
2018-05-23T20:02:05.457Z,21.10
2018-05-23T20:04:32.856Z,21.10
2018-05-23T20:07:00.332Z,21.00
2018-05-23T20:09:27.812Z,20.90
2018-05-23T20:11:55.376Z,20.90
2018-05-23T20:14:22.849Z,20.80
2018-05-23T20:16:50.299Z,20.70
2018-05-23T20:19:17.776Z,20.70
2018-05-23T20:21:45.231Z,20.60
2018-05-23T20:25:12.425Z,20.50
2018-05-23T20:27:40.013Z,20.40
2018-05-23T20:30:07.461Z,20.30
2018-05-23T20:32:34.936Z,20.20
2018-05-23T20:35:02.485Z,20.10
2018-05-23T20:37:29.926Z,20.00
2018-05-23T20:39:58.156Z,19.90
2018-05-23T20:42:25.636Z,19.90
2018-05-23T20:44:53.107Z,19.80
2018-05-23T20:47:20.576Z,19.70
2018-05-23T20:49:48.348Z,19.60
2018-05-23T20:52:15.884Z,19.60
2018-05-23T20:54:43.395Z,19.50
2018-05-23T20:57:10.852Z,19.40
2018-05-23T20:59:38.397Z,19.40
2018-05-23T21:02:05.867Z,19.30
2018-05-23T21:04:34.068Z,19.20
2018-05-23T21:07:01.528Z,19.10
2018-05-23T21:09:29.033Z,19.10
2018-05-23T21:11:56.494Z,19.10
2018-05-23T21:14:23.969Z,19.00
2018-05-23T21:16:51.541Z,18.90
2018-05-23T21:19:19.014Z,18.90
2018-05-23T21:21:47.209Z,18.80
2018-05-23T21:24:14.776Z,18.70
2018-05-23T21:26:42.240Z,18.70
2018-05-23T21:29:09.702Z,18.70
2018-05-23T21:31:37.149Z,18.60
2018-05-23T21:34:04.652Z,18.50
2018-05-23T21:36:32.105Z,18.50
2018-05-23T21:38:59.556Z,18.40
2018-05-23T21:41:27.165Z,18.30
2018-05-23T21:43:54.616Z,18.30
2018-05-23T21:46:22.084Z,18.30
2018-05-23T21:48:49.572Z,18.20
2018-05-23T21:51:17.044Z,18.10
2018-05-23T21:53:44.500Z,18.10
2018-05-23T21:56:11.964Z,18.00
2018-05-23T21:58:39.419Z,17.90
2018-05-23T22:01:06.927Z,17.90
2018-05-23T22:03:34.384Z,17.80
2018-05-23T22:06:01.864Z,17.80
2018-05-23T22:08:29.432Z,17.70
2018-05-23T22:10:56.908Z,17.70
2018-05-23T22:13:24.373Z,17.60
2018-05-23T22:15:51.821Z,17.50
2018-05-23T22:18:19.345Z,17.50
2018-05-23T22:20:46.782Z,17.50
2018-05-23T22:23:14.252Z,17.40
2018-05-23T22:25:41.716Z,17.40
2018-05-23T22:28:09.194Z,17.40
2018-05-23T22:30:36.728Z,17.40
2018-05-23T22:33:04.132Z,17.40
2018-05-23T22:35:31.681Z,17.30
2018-05-23T22:37:59.044Z,17.30
2018-05-23T22:40:26.845Z,17.40
2018-05-23T22:42:54.296Z,17.30
2018-05-23T22:45:21.789Z,17.30
2018-05-23T22:47:49.252Z,17.30
2018-05-23T22:50:16.705Z,17.30
2018-05-23T22:52:44.161Z,17.20
2018-05-23T22:55:11.675Z,17.20
2018-05-23T22:57:39.241Z,17.20
2018-05-23T23:00:06.709Z,17.20
2018-05-23T23:02:34.174Z,17.20
2018-05-23T23:05:01.634Z,17.10
2018-05-23T23:07:29.120Z,17.10
2018-05-23T23:09:56.689Z,17.00
2018-05-23T23:12:24.136Z,17.00
2018-05-23T23:14:51.597Z,17.00
2018-05-23T23:17:19.101Z,16.90
2018-05-23T23:19:46.564Z,16.80
2018-05-23T23:22:25.796Z,16.70
2018-05-23T23:24:53.260Z,16.70
2018-05-23T23:27:20.712Z,16.70
2018-05-23T23:29:48.173Z,16.70
2018-05-23T23:32:16.396Z,16.60
2018-05-23T23:34:43.889Z,16.60
2018-05-23T23:37:11.353Z,16.60
2018-05-23T23:39:38.804Z,16.50
2018-05-23T23:42:06.292Z,16.40
2018-05-23T23:44:33.759Z,16.40
2018-05-23T23:47:01.238Z,16.40
2018-05-23T23:49:28.809Z,16.30
2018-05-23T23:51:56.256Z,16.30
2018-05-23T23:54:23.721Z,16.30
2018-05-23T23:56:51.173Z,16.40
2018-05-23T23:59:18.908Z,16.40
